Time;durP1;ratioP1;P1;durP2;ratioP2;P2;SDS_P1;SDS_P2;PMS_P1;PMS_P2;Temp;Humidity;BMP_temperature;BMP_pressure;BME280_temperature;BME280_humidity;BME280_pressure;Samples;Min_cycle;Max_cycle;Signal;HPM_P1;HPM_P2
2023/07/08 00:00:42;;;;;;;0.40;0.10;;;17.50;99.90;;;;;;5007256;28;20041;-69
2023/07/08 00:03:08;;;;;;;0.57;0.20;;;17.50;99.90;;;;;;5005976;28;20034;-69
2023/07/08 00:05:35;;;;;;;1.73;0.43;;;17.40;99.90;;;;;;5006082;28;20041;-70
2023/07/08 00:08:01;;;;;;;0.20;0.10;;;17.40;99.90;;;;;;5003913;28;20073;-68
2023/07/08 00:10:28;;;;;;;0.20;0.15;;;17.30;99.90;;;;;;5005138;28;20081;-68
2023/07/08 00:12:56;;;;;;;0.30;0.17;;;17.30;99.90;;;;;;5005804;28;20077;-69
2023/07/08 00:15:26;;;;;;;0.15;0.13;;;17.30;99.90;;;;;;5008550;28;20084;-68
2023/07/08 00:17:52;;;;;;;0.60;0.20;;;17.30;99.90;;;;;;5001116;28;20077;-69
2023/07/08 00:20:36;;;;;;;0.63;0.25;;;17.20;99.90;;;;;;4998141;28;20080;-68
2023/07/08 00:23:02;;;;;;;0.47;0.35;;;17.20;99.90;;;;;;5003900;28;20084;-69
2023/07/08 00:25:37;;;;;;;0.93;0.13;;;17.10;99.90;;;;;;4999962;28;20047;-71
2023/07/08 00:28:24;;;;;;;0.43;0.22;;;17.10;99.90;;;;;;4983534;28;20058;-69
2023/07/08 00:30:49;;;;;;;0.30;0.10;;;17.10;99.90;;;;;;5003454;28;20129;-69
2023/07/08 00:33:16;;;;;;;0.20;0.17;;;17.00;99.90;;;;;;5003959;28;20534;-70
2023/07/08 00:35:44;;;;;;;0.32;0.20;;;17.00;99.90;;;;;;5005071;28;20076;-69
2023/07/08 00:38:28;;;;;;;0.50;0.30;;;16.90;99.90;;;;;;5002985;28;20500;-69
2023/07/08 00:41:06;;;;;;;0.32;0.20;;;16.90;99.90;;;;;;5018773;28;20053;-69
2023/07/08 00:43:37;;;;;;;0.45;0.20;;;16.90;99.90;;;;;;5006425;28;20132;-69
2023/07/08 00:46:29;;;;;;;0.25;0.08;;;16.80;99.90;;;;;;5018051;28;20034;-69
2023/07/08 00:49:07;;;;;;;0.73;0.30;;;16.80;99.90;;;;;;4999212;28;20467;-69
2023/07/08 00:51:39;;;;;;;0.43;0.17;;;16.80;99.90;;;;;;5004478;28;20140;-68
2023/07/08 00:54:10;;;;;;;0.35;0.22;;;16.70;99.90;;;;;;5008750;28;20038;-69
2023/07/08 00:56:50;;;;;;;2.03;0.30;;;16.70;99.90;;;;;;5001151;28;20050;-69
2023/07/08 00:59:21;;;;;;;0.43;0.38;;;16.70;99.90;;;;;;4999643;28;20077;-70
2023/07/08 01:01:48;;;;;;;0.68;0.38;;;16.60;99.90;;;;;;5003087;28;20432;-69
2023/07/08 01:04:34;;;;;;;0.60;0.40;;;16.60;99.90;;;;;;5005126;28;20046;-69
2023/07/08 01:07:03;;;;;;;0.40;0.10;;;16.60;99.90;;;;;;4997862;28;20595;-69
2023/07/08 01:09:38;;;;;;;0.40;0.10;;;16.60;99.90;;;;;;5003006;28;20159;-69
2023/07/08 01:12:08;;;;;;;1.52;0.55;;;16.60;99.90;;;;;;5000033;28;20113;-69
2023/07/08 01:14:37;;;;;;;0.55;0.38;;;16.50;99.90;;;;;;5007693;28;20041;-70
2023/07/08 01:17:03;;;;;;;1.08;0.40;;;16.50;99.90;;;;;;4997748;28;20113;-69
2023/07/08 01:19:32;;;;;;;0.30;0.10;;;16.50;99.90;;;;;;5004477;28;20045;-69
2023/07/08 01:22:03;;;;;;;2.65;0.38;;;16.50;99.90;;;;;;5002938;28;20684;-69
2023/07/08 01:24:31;;;;;;;0.28;0.10;;;16.50;99.90;;;;;;5003026;28;20528;-69
2023/07/08 01:26:58;;;;;;;0.20;0.10;;;16.50;99.90;;;;;;4994730;28;20042;-69
2023/07/08 01:29:23;;;;;;;0.40;0.22;;;16.50;99.90;;;;;;5007478;28;20480;-69
2023/07/08 01:31:49;;;;;;;0.30;0.25;;;16.50;99.90;;;;;;5001231;28;20133;-69
2023/07/08 01:34:16;;;;;;;1.15;0.20;;;16.40;99.90;;;;;;5000939;28;20095;-70
2023/07/08 01:36:50;;;;;;;0.30;0.20;;;16.40;99.90;;;;;;4994408;28;20077;-69
2023/07/08 01:39:19;;;;;;;0.45;0.22;;;16.40;99.90;;;;;;4996751;28;20474;-70
2023/07/08 01:41:45;;;;;;;0.47;0.22;;;16.40;99.90;;;;;;5002363;28;20491;-69
2023/07/08 01:44:35;;;;;;;0.73;0.32;;;16.40;99.90;;;;;;5003023;28;20049;-68
2023/07/08 01:47:11;;;;;;;0.47;0.30;;;16.40;99.90;;;;;;4999509;28;20041;-69
2023/07/08 01:49:39;;;;;;;0.82;0.28;;;16.30;99.90;;;;;;4986474;28;20046;-69
2023/07/08 01:52:06;;;;;;;0.40;0.10;;;16.30;99.90;;;;;;5001419;28;20133;-69
2023/07/08 01:54:32;;;;;;;0.43;0.30;;;16.30;99.90;;;;;;5004323;28;20058;-70
2023/07/08 01:56:58;;;;;;;0.10;0.10;;;16.30;99.90;;;;;;4994865;28;20129;-69
2023/07/08 01:59:24;;;;;;;0.98;0.30;;;16.30;99.90;;;;;;4999790;28;20570;-69
2023/07/08 02:01:54;;;;;;;0.95;0.45;;;16.20;99.90;;;;;;4987531;28;20050;-68
2023/07/08 02:04:21;;;;;;;0.30;0.20;;;16.20;99.90;;;;;;4998424;28;20107;-69
2023/07/08 02:06:54;;;;;;;0.68;0.20;;;16.20;99.90;;;;;;4997667;28;20452;-69
2023/07/08 02:09:20;;;;;;;0.70;0.20;;;16.20;99.90;;;;;;5000419;28;20054;-69
2023/07/08 02:11:45;;;;;;;0.10;0.10;;;16.20;99.90;;;;;;5005362;28;20049;-69
2023/07/08 02:14:11;;;;;;;0.20;0.10;;;16.10;99.90;;;;;;5001276;28;20467;-69
2023/07/08 02:16:37;;;;;;;0.55;0.30;;;16.10;99.90;;;;;;5004733;28;20042;-69
2023/07/08 02:19:02;;;;;;;0.75;0.30;;;16.10;99.90;;;;;;5003188;28;20046;-69
2023/07/08 02:21:30;;;;;;;0.35;0.28;;;16.00;99.90;;;;;;5001526;28;20363;-70
2023/07/08 02:23:57;;;;;;;0.88;0.38;;;16.00;99.90;;;;;;4992433;28;20117;-69
2023/07/08 02:26:23;;;;;;;0.55;0.35;;;16.00;99.90;;;;;;4995992;28;20437;-69
2023/07/08 02:28:49;;;;;;;0.20;0.10;;;16.00;99.90;;;;;;5001887;28;20038;-68
2023/07/08 02:31:15;;;;;;;0.52;0.20;;;16.00;99.90;;;;;;5005765;28;20056;-69
2023/07/08 02:33:40;;;;;;;0.38;0.20;;;15.90;99.90;;;;;;5006380;28;20036;-70
2023/07/08 02:36:06;;;;;;;0.80;0.20;;;15.90;99.90;;;;;;5005352;28;20131;-69
2023/07/08 02:38:32;;;;;;;0.43;0.20;;;15.90;99.90;;;;;;5004260;28;20034;-69
2023/07/08 02:40:58;;;;;;;0.32;0.10;;;15.90;99.90;;;;;;5002611;28;20128;-69
2023/07/08 02:43:24;;;;;;;0.65;0.20;;;15.80;99.90;;;;;;5000734;28;20042;-69
2023/07/08 02:45:53;;;;;;;0.47;0.20;;;15.80;99.90;;;;;;5005489;28;20481;-69
2023/07/08 02:48:19;;;;;;;1.25;0.30;;;15.90;99.90;;;;;;5001397;28;20041;-69
2023/07/08 02:50:45;;;;;;;0.30;0.15;;;15.90;99.90;;;;;;5002294;28;20050;-69
2023/07/08 02:53:11;;;;;;;0.30;0.30;;;15.80;99.90;;;;;;4982750;28;20807;-69
2023/07/08 02:55:39;;;;;;;0.30;0.20;;;15.80;99.90;;;;;;5002166;28;20038;-70
2023/07/08 02:58:04;;;;;;;1.77;0.65;;;15.80;99.90;;;;;;5002875;28;20098;-69
2023/07/08 03:00:30;;;;;;;0.57;0.35;;;15.80;99.90;;;;;;4991807;28;20053;-69
2023/07/08 03:02:56;;;;;;;1.13;0.30;;;15.80;99.90;;;;;;4997689;28;20038;-68
2023/07/08 03:05:21;;;;;;;0.63;0.30;;;15.80;99.90;;;;;;5004504;28;20038;-69
2023/07/08 03:07:47;;;;;;;0.80;0.40;;;15.80;99.90;;;;;;5006384;28;20041;-69
2023/07/08 03:10:13;;;;;;;0.45;0.25;;;15.80;99.90;;;;;;5003993;28;20471;-70
2023/07/08 03:12:38;;;;;;;0.70;0.40;;;15.80;99.90;;;;;;4985352;28;20042;-69
2023/07/08 03:15:05;;;;;;;0.35;0.25;;;15.70;99.90;;;;;;5006972;28;20038;-70
2023/07/08 03:17:31;;;;;;;0.30;0.10;;;15.80;99.90;;;;;;5007555;28;20121;-69
2023/07/08 03:19:56;;;;;;;1.02;0.45;;;15.80;99.90;;;;;;5002550;28;20160;-68
2023/07/08 03:22:22;;;;;;;0.60;0.22;;;15.70;99.90;;;;;;4996309;28;20061;-69
2023/07/08 03:24:48;;;;;;;1.58;0.30;;;15.70;99.90;;;;;;5006333;28;20488;-69
2023/07/08 03:27:14;;;;;;;0.38;0.20;;;15.70;99.90;;;;;;5005275;28;20053;-68
2023/07/08 03:29:40;;;;;;;3.17;0.30;;;15.60;99.90;;;;;;4997150;28;20093;-69
2023/07/08 03:32:11;;;;;;;0.30;0.20;;;15.60;99.90;;;;;;5005866;28;20092;-70
2023/07/08 03:34:38;;;;;;;0.30;0.10;;;15.60;99.90;;;;;;5010481;28;20116;-69
2023/07/08 03:37:04;;;;;;;0.50;0.20;;;15.60;99.90;;;;;;5002558;28;20084;-69
2023/07/08 03:39:31;;;;;;;0.60;0.20;;;15.60;99.90;;;;;;4998733;28;20123;-69
2023/07/08 03:41:57;;;;;;;0.82;0.20;;;15.60;99.90;;;;;;5005405;28;20042;-69
2023/07/08 03:44:23;;;;;;;0.35;0.20;;;15.50;99.90;;;;;;5007479;28;20080;-69
2023/07/08 03:46:50;;;;;;;0.65;0.20;;;15.50;99.90;;;;;;5003622;28;20117;-70
2023/07/08 03:49:21;;;;;;;0.77;0.20;;;15.50;99.90;;;;;;5003756;28;20037;-68
2023/07/08 03:51:48;;;;;;;1.50;0.35;;;15.50;99.90;;;;;;5008984;28;20050;-69
2023/07/08 03:54:15;;;;;;;0.20;0.10;;;15.50;99.90;;;;;;5002961;28;20046;-69
2023/07/08 03:56:40;;;;;;;0.30;0.10;;;15.50;99.90;;;;;;5006032;28;20049;-69
2023/07/08 03:59:09;;;;;;;0.95;0.05;;;15.50;99.90;;;;;;5003779;28;20441;-69
2023/07/08 04:01:35;;;;;;;1.08;0.25;;;15.50;99.90;;;;;;4999061;28;20048;-69
2023/07/08 04:04:01;;;;;;;0.73;0.38;;;15.50;99.90;;;;;;5006414;28;20042;-69
2023/07/08 04:06:31;;;;;;;0.10;0.10;;;15.50;99.90;;;;;;4999543;28;20042;-69
2023/07/08 04:08:57;;;;;;;0.20;0.20;;;15.50;99.90;;;;;;5004863;28;20109;-69
2023/07/08 04:11:23;;;;;;;0.17;0.10;;;15.50;99.90;;;;;;5000450;28;20129;-69
2023/07/08 04:13:50;;;;;;;0.75;0.50;;;15.50;99.90;;;;;;5002282;28;20475;-68
2023/07/08 04:16:24;;;;;;;0.22;0.22;;;15.50;99.90;;;;;;5003743;28;20100;-69
2023/07/08 04:18:53;;;;;;;0.20;0.20;;;15.50;99.90;;;;;;5007420;28;20509;-70
2023/07/08 04:21:20;;;;;;;0.20;0.15;;;15.50;99.90;;;;;;5000903;28;20053;-69
2023/07/08 04:23:45;;;;;;;0.68;0.63;;;15.60;99.90;;;;;;5004328;28;20482;-68
2023/07/08 04:26:12;;;;;;;0.50;0.38;;;15.60;99.90;;;;;;4999506;28;20045;-69
2023/07/08 04:28:37;;;;;;;0.13;0.10;;;15.70;99.90;;;;;;5002249;28;20123;-68
2023/07/08 04:31:03;;;;;;;1.02;0.40;;;15.70;99.90;;;;;;4999752;28;20139;-69
2023/07/08 04:33:29;;;;;;;1.13;0.45;;;15.80;99.90;;;;;;5004305;28;20045;-69
2023/07/08 04:35:55;;;;;;;0.05;0.00;;;15.80;99.90;;;;;;5002922;28;20038;-70
2023/07/08 04:38:23;;;;;;;0.10;0.10;;;15.90;99.90;;;;;;4997284;28;20141;-70
2023/07/08 04:40:50;;;;;;;1.13;0.30;;;16.00;99.90;;;;;;5004419;28;20045;-69
2023/07/08 04:43:17;;;;;;;0.25;0.10;;;16.10;99.90;;;;;;5005055;28;20053;-70
2023/07/08 04:45:46;;;;;;;1.45;0.50;;;16.20;99.90;;;;;;4999144;28;20390;-68
2023/07/08 04:48:14;;;;;;;0.10;0.10;;;16.20;99.90;;;;;;4984059;28;20124;-69
2023/07/08 04:50:44;;;;;;;1.38;0.30;;;16.30;99.90;;;;;;5006449;28;20041;-69
2023/07/08 04:53:11;;;;;;;0.40;0.22;;;16.40;99.90;;;;;;5009023;28;20494;-68
2023/07/08 04:55:48;;;;;;;0.50;0.30;;;16.50;99.90;;;;;;5005839;28;20081;-68
2023/07/08 04:58:14;;;;;;;0.63;0.32;;;16.60;99.90;;;;;;5005393;28;20116;-69
2023/07/08 05:00:39;;;;;;;0.28;0.20;;;16.80;99.90;;;;;;5009065;28;20393;-68
2023/07/08 05:03:05;;;;;;;0.15;0.15;;;17.00;99.90;;;;;;5008185;28;20038;-70
2023/07/08 05:05:31;;;;;;;0.57;0.25;;;17.50;99.90;;;;;;5003910;28;20037;-69
2023/07/08 05:07:57;;;;;;;1.85;0.40;;;18.00;99.90;;;;;;5006387;28;20437;-70
2023/07/08 05:10:22;;;;;;;0.95;0.30;;;18.40;99.90;;;;;;5006235;28;20149;-69
2023/07/08 05:12:48;;;;;;;1.25;0.30;;;18.60;99.90;;;;;;5009159;28;20093;-69
2023/07/08 05:15:15;;;;;;;0.52;0.22;;;18.50;99.90;;;;;;5005951;28;20065;-69
2023/07/08 05:17:42;;;;;;;0.70;0.60;;;18.50;99.90;;;;;;5006242;28;20040;-69
2023/07/08 05:20:10;;;;;;;0.43;0.30;;;18.70;99.90;;;;;;5007979;28;20041;-69
2023/07/08 05:22:36;;;;;;;0.22;0.15;;;18.90;99.90;;;;;;5007897;28;20045;-70
2023/07/08 05:25:03;;;;;;;0.70;0.50;;;18.80;99.90;;;;;;5004157;28;20046;-69
2023/07/08 05:27:29;;;;;;;0.30;0.25;;;18.60;99.90;;;;;;5007189;28;20049;-69
2023/07/08 05:29:55;;;;;;;1.33;0.40;;;18.40;99.90;;;;;;5005847;28;20053;-69
2023/07/08 05:32:21;;;;;;;0.77;0.40;;;18.30;99.90;;;;;;5006493;28;20034;-70
2023/07/08 05:34:47;;;;;;;1.42;0.50;;;18.20;99.90;;;;;;5006875;28;20045;-70
2023/07/08 05:37:13;;;;;;;0.77;0.13;;;18.20;99.90;;;;;;5007557;28;20046;-69
2023/07/08 05:39:39;;;;;;;0.50;0.20;;;18.10;99.90;;;;;;5009415;28;20128;-69
2023/07/08 05:42:05;;;;;;;0.35;0.30;;;18.10;99.90;;;;;;5006024;28;20390;-70
2023/07/08 05:44:31;;;;;;;1.15;0.90;;;18.10;99.90;;;;;;5003239;28;20112;-68
2023/07/08 05:46:56;;;;;;;0.47;0.40;;;18.20;99.90;;;;;;5005056;28;20037;-68
2023/07/08 05:49:22;;;;;;;0.10;0.10;;;18.20;99.90;;;;;;5009523;28;20095;-67
2023/07/08 05:51:48;;;;;;;0.22;0.22;;;18.30;99.90;;;;;;5009101;28;20042;-68
2023/07/08 05:54:14;;;;;;;0.38;0.20;;;18.30;99.90;;;;;;5007384;28;20046;-70
2023/07/08 05:56:40;;;;;;;0.28;0.13;;;18.40;99.90;;;;;;5005418;28;20054;-68
2023/07/08 05:59:06;;;;;;;0.60;0.20;;;18.50;99.90;;;;;;4992515;28;20067;-68
2023/07/08 06:01:32;;;;;;;0.82;0.50;;;18.60;99.90;;;;;;5005703;28;20497;-71
2023/07/08 06:03:59;;;;;;;0.60;0.30;;;18.70;99.90;;;;;;5002561;28;20095;-71
2023/07/08 06:06:26;;;;;;;1.17;0.35;;;18.70;99.90;;;;;;4999789;28;20081;-70
2023/07/08 06:08:52;;;;;;;0.60;0.43;;;18.80;99.90;;;;;;5004298;28;20042;-71
2023/07/08 06:11:18;;;;;;;0.80;0.50;;;18.90;99.90;;;;;;5000876;28;20042;-71
2023/07/08 06:13:44;;;;;;;1.10;0.45;;;19.00;99.90;;;;;;4993819;28;20054;-71
2023/07/08 06:16:10;;;;;;;0.13;0.10;;;19.00;99.90;;;;;;5000238;28;20042;-71
2023/07/08 06:18:35;;;;;;;0.50;0.13;;;19.10;99.90;;;;;;4998391;28;20042;-70
2023/07/08 06:21:01;;;;;;;0.45;0.35;;;19.30;99.90;;;;;;5006222;28;20037;-70
2023/07/08 06:23:27;;;;;;;0.15;0.08;;;19.40;99.90;;;;;;5003503;28;20042;-70
2023/07/08 06:25:53;;;;;;;0.28;0.22;;;19.50;99.90;;;;;;4990379;28;20053;-71
2023/07/08 06:28:20;;;;;;;0.17;0.17;;;19.50;99.90;;;;;;4999638;28;20053;-70
2023/07/08 06:30:46;;;;;;;0.40;0.30;;;19.70;99.90;;;;;;5000581;28;20049;-70
2023/07/08 06:33:12;;;;;;;0.20;0.20;;;19.80;99.90;;;;;;5002470;28;20042;-70
2023/07/08 06:35:39;;;;;;;0.43;0.40;;;19.90;99.90;;;;;;5004312;28;20066;-70
2023/07/08 06:38:06;;;;;;;0.30;0.22;;;20.00;99.90;;;;;;5001567;28;20038;-70
2023/07/08 06:40:32;;;;;;;1.05;0.13;;;20.10;99.90;;;;;;5001866;28;20034;-70
2023/07/08 06:42:58;;;;;;;0.40;0.17;;;20.20;99.90;;;;;;5001139;28;20081;-70
2023/07/08 06:45:24;;;;;;;0.00;0.00;;;20.40;99.90;;;;;;5001037;28;20073;-70
2023/07/08 06:47:49;;;;;;;0.00;0.00;;;20.50;99.90;;;;;;5002868;28;20037;-70
2023/07/08 06:50:15;;;;;;;0.30;0.20;;;20.60;99.90;;;;;;4999126;28;20100;-70
2023/07/08 06:52:41;;;;;;;0.00;0.00;;;20.80;99.90;;;;;;5001905;28;20065;-70
2023/07/08 06:55:09;;;;;;;0.32;0.20;;;20.90;99.90;;;;;;5003605;28;20065;-68
2023/07/08 06:57:35;;;;;;;0.10;0.10;;;21.00;99.90;;;;;;4997335;28;20510;-68
2023/07/08 07:00:01;;;;;;;0.03;0.00;;;21.10;99.90;;;;;;4998612;28;20041;-69
2023/07/08 07:02:27;;;;;;;0.00;0.00;;;21.20;99.90;;;;;;4999545;28;20102;-68
2023/07/08 07:04:55;;;;;;;0.10;0.10;;;21.40;99.90;;;;;;5001612;28;20374;-68
2023/07/08 07:07:20;;;;;;;0.20;0.08;;;21.50;99.90;;;;;;5002000;28;20045;-68
2023/07/08 07:09:46;;;;;;;0.10;0.05;;;21.60;99.90;;;;;;5006341;28;20125;-69
2023/07/08 07:12:12;;;;;;;0.10;0.10;;;21.70;99.90;;;;;;5005589;28;20418;-67
2023/07/08 07:14:37;;;;;;;0.10;0.10;;;21.80;99.90;;;;;;5000041;28;20034;-68
2023/07/08 07:17:03;;;;;;;0.00;0.00;;;21.90;99.90;;;;;;5002269;28;20042;-68
2023/07/08 07:19:29;;;;;;;0.15;0.13;;;22.10;99.90;;;;;;5010922;28;20050;-68
2023/07/08 07:21:55;;;;;;;0.00;0.00;;;22.20;99.90;;;;;;5005280;28;20049;-68
2023/07/08 07:24:20;;;;;;;0.10;0.10;;;22.30;99.90;;;;;;5002763;28;20070;-69
2023/07/08 07:26:46;;;;;;;0.15;0.15;;;22.40;99.90;;;;;;5002509;28;20723;-69
2023/07/08 07:29:16;;;;;;;0.15;0.10;;;22.40;99.90;;;;;;4995184;28;20034;-69
2023/07/08 07:31:42;;;;;;;0.20;0.10;;;22.50;99.90;;;;;;5002481;28;20487;-69
2023/07/08 07:34:08;;;;;;;0.00;0.00;;;22.70;99.90;;;;;;5002820;28;20049;-68
2023/07/08 07:36:34;;;;;;;0.08;0.08;;;22.80;99.90;;;;;;5003608;28;20057;-69
2023/07/08 07:39:00;;;;;;;0.08;0.00;;;22.90;99.90;;;;;;5004279;28;20034;-69
2023/07/08 07:41:26;;;;;;;0.20;0.10;;;23.00;99.90;;;;;;5003603;28;20529;-70
2023/07/08 07:43:51;;;;;;;0.10;0.00;;;23.00;99.90;;;;;;5006979;28;20042;-69
2023/07/08 07:46:18;;;;;;;0.10;0.00;;;23.00;99.90;;;;;;5007885;28;20045;-69
2023/07/08 07:48:44;;;;;;;0.20;0.10;;;23.10;99.90;;;;;;5000512;28;20039;-69
2023/07/08 07:51:10;;;;;;;0.20;0.10;;;23.20;99.90;;;;;;5004108;28;20049;-70
2023/07/08 07:53:39;;;;;;;0.73;0.32;;;23.30;99.90;;;;;;5006174;28;20821;-68
2023/07/08 07:56:06;;;;;;;0.50;0.38;;;23.40;99.90;;;;;;5006186;28;20126;-68
2023/07/08 07:58:32;;;;;;;0.30;0.28;;;23.50;99.90;;;;;;5002369;28;20053;-69
2023/07/08 08:00:58;;;;;;;0.17;0.10;;;23.70;99.90;;;;;;5003830;28;20091;-69
2023/07/08 08:03:27;;;;;;;0.00;0.00;;;23.80;99.70;;;;;;5005997;28;20419;-68
2023/07/08 08:05:53;;;;;;;0.20;0.10;;;23.90;99.90;;;;;;5003254;28;20045;-69
2023/07/08 08:08:20;;;;;;;0.28;0.20;;;24.00;98.90;;;;;;4998186;28;20045;-68
2023/07/08 08:10:46;;;;;;;0.00;0.00;;;24.20;99.90;;;;;;5003668;28;20042;-68
2023/07/08 08:13:12;;;;;;;0.28;0.05;;;24.30;98.80;;;;;;5007471;28;20124;-68
2023/07/08 08:15:38;;;;;;;0.00;0.00;;;24.40;98.50;;;;;;5003145;28;20586;-68
2023/07/08 08:18:04;;;;;;;0.00;0.00;;;24.60;99.20;;;;;;5003478;28;20030;-68
2023/07/08 08:20:30;;;;;;;0.20;0.10;;;24.70;97.80;;;;;;5002006;28;20038;-68
2023/07/08 08:22:56;;;;;;;0.08;0.08;;;24.80;98.90;;;;;;5004876;28;20034;-67
2023/07/08 08:25:23;;;;;;;0.10;0.10;;;24.90;98.30;;;;;;4999089;28;20035;-69
2023/07/08 08:27:50;;;;;;;1.05;0.30;;;25.10;97.30;;;;;;5003004;28;20451;-69
2023/07/08 08:30:16;;;;;;;0.30;0.15;;;25.10;96.10;;;;;;5004052;28;20034;-69
2023/07/08 08:32:42;;;;;;;0.30;0.20;;;25.20;96.80;;;;;;5003376;28;20077;-69
2023/07/08 08:35:08;;;;;;;0.00;0.00;;;25.30;95.70;;;;;;4999499;28;20078;-69
2023/07/08 08:37:33;;;;;;;0.20;0.20;;;25.50;94.90;;;;;;4998810;28;20093;-68
2023/07/08 08:39:59;;;;;;;1.27;0.98;;;25.60;95.20;;;;;;5007079;28;20041;-68
2023/07/08 08:42:38;;;;;;;0.13;0.10;;;25.70;95.10;;;;;;5000576;28;20042;-69
2023/07/08 08:45:07;;;;;;;0.77;0.68;;;25.80;92.70;;;;;;4998968;28;20153;-68
2023/07/08 08:47:36;;;;;;;0.30;0.20;;;25.80;91.80;;;;;;5001755;28;20146;-68
2023/07/08 08:50:24;;;;;;;0.70;0.30;;;25.90;91.50;;;;;;5005295;28;20104;-68
2023/07/08 08:52:51;;;;;;;0.28;0.10;;;25.90;92.80;;;;;;5004584;28;20371;-68
2023/07/08 08:55:17;;;;;;;0.25;0.05;;;26.10;92.70;;;;;;5009528;28;20139;-68
2023/07/08 08:57:52;;;;;;;0.28;0.20;;;26.20;90.70;;;;;;5000849;28;20046;-69
2023/07/08 09:00:28;;;;;;;0.55;0.20;;;26.30;91.60;;;;;;5004275;28;20053;-68
2023/07/08 09:03:02;;;;;;;0.38;0.10;;;26.60;90.40;;;;;;4998582;28;20053;-69
2023/07/08 09:05:28;;;;;;;0.03;0.03;;;26.80;90.00;;;;;;5003781;28;20085;-68
2023/07/08 09:07:59;;;;;;;0.85;0.55;;;27.10;90.00;;;;;;5001692;28;20493;-68
2023/07/08 09:11:02;;;;;;;0.20;0.10;;;27.20;85.60;;;;;;5007391;28;20064;-68
2023/07/08 09:13:34;;;;;;;1.75;0.55;;;27.30;86.80;;;;;;4994054;28;20508;-69
2023/07/08 09:16:43;;;;;;;0.45;0.30;;;27.60;84.80;;;;;;5001431;28;20744;-69
2023/07/08 09:19:25;;;;;;;0.10;0.03;;;27.90;84.20;;;;;;5000996;28;20050;-68
2023/07/08 09:22:06;;;;;;;1.00;0.32;;;27.80;81.90;;;;;;5003204;28;20030;-68
2023/07/08 09:24:32;;;;;;;0.03;0.03;;;27.80;83.00;;;;;;5005433;28;20100;-69
2023/07/08 09:27:01;;;;;;;0.00;0.00;;;27.80;77.60;;;;;;5005009;28;20038;-70
2023/07/08 09:29:28;;;;;;;0.28;0.10;;;27.80;78.60;;;;;;4998740;28;20038;-69
2023/07/08 09:31:54;;;;;;;0.20;0.10;;;27.90;80.70;;;;;;5002952;28;20120;-69
2023/07/08 09:34:23;;;;;;;0.00;0.00;;;28.00;79.10;;;;;;4997697;28;20046;-69
2023/07/08 09:36:50;;;;;;;0.28;0.20;;;28.10;80.60;;;;;;5005608;28;20540;-69
2023/07/08 09:39:20;;;;;;;0.20;0.10;;;28.20;75.60;;;;;;4997937;28;20041;-68
2023/07/08 09:41:49;;;;;;;0.43;0.20;;;28.30;78.30;;;;;;5002246;28;20077;-68
2023/07/08 09:44:28;;;;;;;0.38;0.25;;;28.40;79.30;;;;;;4997110;28;20050;-69
2023/07/08 09:46:56;;;;;;;0.20;0.20;;;28.50;78.30;;;;;;5004794;28;20050;-68
2023/07/08 09:49:27;;;;;;;0.22;0.20;;;28.60;73.30;;;;;;5005224;28;20045;-68
2023/07/08 09:51:54;;;;;;;0.13;0.10;;;28.80;75.80;;;;;;5004683;28;20474;-68
2023/07/08 09:54:24;;;;;;;0.57;0.20;;;28.90;74.10;;;;;;4998297;28;20054;-68
2023/07/08 09:57:00;;;;;;;0.03;0.03;;;29.20;76.90;;;;;;5004061;28;20038;-68
2023/07/08 09:59:40;;;;;;;0.30;0.10;;;29.50;74.60;;;;;;5007265;28;20085;-68
2023/07/08 10:02:25;;;;;;;0.10;0.03;;;29.60;71.50;;;;;;5001418;28;20561;-69
2023/07/08 10:05:01;;;;;;;0.20;0.10;;;29.70;70.40;;;;;;4999599;28;20406;-69
2023/07/08 10:07:34;;;;;;;0.10;0.00;;;29.80;67.90;;;;;;5004237;28;20121;-69
2023/07/08 10:10:04;;;;;;;0.00;0.00;;;29.80;66.60;;;;;;4994987;28;20096;-70
2023/07/08 10:12:31;;;;;;;0.22;0.10;;;29.90;68.40;;;;;;4994843;28;20042;-68
2023/07/08 10:15:03;;;;;;;0.10;0.10;;;29.90;68.00;;;;;;5002101;28;20091;-69
2023/07/08 10:17:30;;;;;;;0.75;0.10;;;30.00;69.50;;;;;;5001263;28;20049;-68
2023/07/08 10:19:55;;;;;;;0.20;0.10;;;30.20;66.10;;;;;;4994568;28;20057;-69
2023/07/08 10:23:01;;;;;;;0.85;0.32;;;30.30;65.50;;;;;;5001349;28;20498;-69
2023/07/08 10:25:34;;;;;;;0.10;0.00;;;30.40;64.70;;;;;;4966802;28;20222;-69
2023/07/08 10:28:08;;;;;;;1.77;0.38;;;30.50;65.50;;;;;;4995211;28;20058;-70
2023/07/08 10:30:57;;;;;;;0.10;0.10;;;30.70;65.10;;;;;;4996076;28;20042;-70
2023/07/08 10:33:39;;;;;;;0.93;0.63;;;30.80;64.60;;;;;;5002305;28;20137;-69
2023/07/08 10:36:05;;;;;;;0.45;0.10;;;30.80;61.50;;;;;;4998253;28;20041;-69
2023/07/08 10:38:46;;;;;;;0.30;0.20;;;31.00;60.70;;;;;;5005446;28;20048;-69
2023/07/08 10:41:27;;;;;;;0.10;0.10;;;31.00;59.80;;;;;;5005951;28;20450;-69
2023/07/08 10:44:05;;;;;;;0.68;0.22;;;31.10;58.30;;;;;;5008366;28;20073;-70
2023/07/08 10:47:08;;;;;;;0.08;0.05;;;31.20;61.00;;;;;;5005169;28;20049;-71
2023/07/08 10:49:48;;;;;;;0.40;0.28;;;31.40;58.10;;;;;;5004549;28;20613;-70
2023/07/08 10:52:49;;;;;;;0.20;0.10;;;31.20;57.90;;;;;;5004186;28;20046;-69
2023/07/08 10:55:32;;;;;;;0.00;0.00;;;31.30;57.00;;;;;;5000934;28;20051;-69
2023/07/08 10:58:16;;;;;;;0.30;0.20;;;31.40;58.30;;;;;;5003652;28;20042;-70
2023/07/08 11:01:08;;;;;;;0.10;0.03;;;31.50;57.80;;;;;;5001711;28;20065;-69
2023/07/08 11:03:58;;;;;;;0.22;0.13;;;31.80;56.00;;;;;;5003270;28;20096;-70
2023/07/08 11:06:48;;;;;;;0.13;0.10;;;31.90;53.90;;;;;;5002166;28;20089;-69
2023/07/08 11:09:24;;;;;;;0.15;0.10;;;31.90;54.80;;;;;;5000779;28;20048;-69
2023/07/08 11:11:57;;;;;;;0.45;0.20;;;31.90;53.50;;;;;;5005875;28;20038;-69
2023/07/08 11:14:29;;;;;;;;;;;31.80;54.10;;;;;;5004050;28;20046;-71
2023/07/08 11:17:09;;;;;;;1.35;0.30;;;31.90;53.90;;;;;;5004575;28;19932;-70
2023/07/08 11:19:42;;;;;;;0.13;0.13;;;31.90;53.50;;;;;;5010268;28;20046;-70
2023/07/08 11:22:13;;;;;;;0.10;0.10;;;32.00;54.40;;;;;;5010074;28;20685;-69
2023/07/08 11:24:51;;;;;;;0.30;0.10;;;32.10;52.80;;;;;;5010901;28;20042;-69
2023/07/08 11:27:32;;;;;;;0.40;0.20;;;32.20;52.00;;;;;;5007191;28;20163;-70
2023/07/08 11:29:58;;;;;;;0.15;0.08;;;32.00;53.10;;;;;;5009860;28;20050;-70
2023/07/08 11:32:28;;;;;;;0.15;0.10;;;32.10;53.10;;;;;;5008826;28;20040;-71
2023/07/08 11:34:55;;;;;;;0.43;0.10;;;32.20;52.00;;;;;;5008562;28;20115;-69
2023/07/08 11:37:22;;;;;;;0.57;0.20;;;32.20;51.90;;;;;;5010214;28;20037;-70
2023/07/08 11:40:13;;;;;;;0.30;0.25;;;32.30;52.50;;;;;;5010245;28;20038;-69
2023/07/08 11:42:47;;;;;;;0.13;0.00;;;32.40;52.70;;;;;;4993426;28;20092;-69
2023/07/08 11:45:18;;;;;;;0.75;0.30;;;32.60;51.50;;;;;;5009567;28;20128;-70
2023/07/08 11:47:46;;;;;;;0.17;0.10;;;32.80;51.10;;;;;;5007964;28;20497;-69
2023/07/08 11:50:38;;;;;;;0.95;0.38;;;32.90;50.50;;;;;;5009700;28;20034;-69
2023/07/08 11:53:13;;;;;;;0.30;0.10;;;33.00;49.10;;;;;;5009803;28;20050;-70
2023/07/08 11:55:44;;;;;;;0.28;0.03;;;33.10;51.00;;;;;;5008196;28;20074;-69
2023/07/08 11:58:25;;;;;;;0.10;0.08;;;32.90;48.70;;;;;;4992670;28;20493;-69
2023/07/08 12:01:16;;;;;;;0.20;0.13;;;33.00;50.70;;;;;;5009661;28;20042;-69
2023/07/08 12:04:08;;;;;;;0.43;0.20;;;33.20;50.40;;;;;;5006072;28;20080;-68
2023/07/08 12:06:36;;;;;;;0.30;0.20;;;33.40;50.80;;;;;;4998932;28;20121;-70
2023/07/08 12:09:27;;;;;;;0.28;0.10;;;33.50;47.30;;;;;;5008484;28;20056;-69
2023/07/08 12:12:05;;;;;;;0.43;0.10;;;33.60;47.90;;;;;;5005589;28;20048;-69
2023/07/08 12:14:32;;;;;;;0.40;0.20;;;33.60;48.80;;;;;;5004964;28;20371;-69
2023/07/08 12:16:58;;;;;;;0.60;0.32;;;33.60;48.00;;;;;;5007482;28;20045;-69
2023/07/08 12:19:28;;;;;;;0.52;0.20;;;33.80;49.30;;;;;;5007801;28;20069;-69
2023/07/08 12:21:54;;;;;;;0.03;0.00;;;33.90;49.70;;;;;;5010526;28;20121;-68
2023/07/08 12:24:26;;;;;;;0.43;0.20;;;34.20;51.00;;;;;;5008076;28;20073;-68
2023/07/08 12:26:52;;;;;;;0.10;0.05;;;34.40;50.60;;;;;;5006690;28;20045;-69
2023/07/08 12:29:18;;;;;;;0.45;0.20;;;34.50;47.40;;;;;;5008465;28;20421;-68
2023/07/08 12:31:44;;;;;;;0.43;0.20;;;34.40;47.50;;;;;;5007493;28;20042;-69
2023/07/08 12:34:17;;;;;;;0.32;0.10;;;34.40;48.30;;;;;;5007094;28;20382;-69
2023/07/08 12:36:44;;;;;;;0.63;0.40;;;34.40;46.70;;;;;;5008507;28;20037;-68
2023/07/08 12:39:16;;;;;;;0.95;0.20;;;34.30;47.00;;;;;;5011684;28;20719;-68
2023/07/08 12:41:43;;;;;;;0.35;0.20;;;34.30;47.20;;;;;;5008536;28;20037;-69
2023/07/08 12:44:19;;;;;;;0.13;0.10;;;34.40;48.10;;;;;;5003850;28;20129;-68
2023/07/08 12:46:46;;;;;;;0.77;0.20;;;34.50;47.70;;;;;;5007800;28;20064;-69
2023/07/08 12:49:13;;;;;;;0.40;0.10;;;34.40;44.50;;;;;;5009501;28;20146;-69
2023/07/08 12:51:43;;;;;;;0.30;0.17;;;34.30;46.20;;;;;;5005810;28;20044;-69
2023/07/08 12:54:10;;;;;;;0.38;0.20;;;34.30;46.90;;;;;;5005139;28;20096;-68
2023/07/08 12:56:37;;;;;;;0.35;0.20;;;34.30;45.00;;;;;;5006178;28;20045;-69
2023/07/08 12:59:05;;;;;;;0.28;0.25;;;34.40;46.20;;;;;;5008292;28;20108;-68
2023/07/08 13:01:34;;;;;;;0.55;0.30;;;34.40;44.80;;;;;;5006043;28;20068;-69